Langdon Corners, New York
Current Conditions -  °F | °C
As of 12:53 AM on Monday 20 Oct 2014 (Local Time) from KMSS Reporting Station
Clear Clear  
Wind Chill: 23°   Ceiling: Unl
Heat Index: 30°   Visibility: 10mi
Dew Point: 27°   Wind: 7mph
Humidity: 88%   Direction: 220°SW
Pressure: 30.01"   Gusts: NA
Location:  44.5792°N, 75.1592°W
Report Text: KMSS 200453Z AUTO 22006KT 10SM CLR M01/M03 A3001 RMK AO2 SLP168 T10111028 400671011
Loading
Personal Weather Stations






























Interactive Weather Map
Tropical Storm Tracking
New forecast layout! Learn more

10-Day Weather Forecast

Advertisements
Track Severe Weather on mobile